Time;durP1;ratioP1;P1;durP2;ratioP2;P2;SDS_P1;SDS_P2;PMS_P1;PMS_P2;Temp;Humidity;BMP_temperature;BMP_pressure;BME280_temperature;BME280_humidity;BME280_pressure;Samples;Min_cycle;Max_cycle;Signal;HPM_P1;HPM_P2
2022/04/01 00:01:26;;;;;;;20.97;15.73;;;6.90;99.90;;;;;;6187583;23;20402;-83
2022/04/01 00:03:55;;;;;;;20.90;16.77;;;6.90;99.90;;;;;;6208591;23;20865;-83
2022/04/01 00:06:21;;;;;;;16.90;14.83;;;6.90;99.90;;;;;;6210239;23;20520;-83
2022/04/01 00:08:48;;;;;;;17.80;14.77;;;6.90;99.90;;;;;;6211083;23;20394;-84
2022/04/01 00:11:14;;;;;;;18.03;14.70;;;6.80;99.90;;;;;;6191464;23;20409;-83
2022/04/01 00:13:41;;;;;;;18.00;13.90;;;6.80;99.90;;;;;;6189518;23;20452;-82
2022/04/01 00:16:08;;;;;;;18.50;15.23;;;6.70;99.90;;;;;;6187619;23;21014;-83
2022/04/01 00:18:34;;;;;;;19.00;14.27;;;6.80;99.90;;;;;;6184353;23;20734;-83
2022/04/01 00:21:02;;;;;;;18.00;14.27;;;6.70;99.90;;;;;;6185443;23;20412;-82
2022/04/01 00:23:29;;;;;;;20.67;16.20;;;6.70;99.90;;;;;;6205490;23;20412;-81
2022/04/01 00:25:56;;;;;;;19.23;14.80;;;6.70;99.90;;;;;;6201758;23;20441;-82
2022/04/01 00:28:23;;;;;;;19.57;14.90;;;6.70;99.90;;;;;;6193396;23;20876;-83
2022/04/01 00:30:49;;;;;;;20.00;15.63;;;6.70;99.90;;;;;;6188346;23;20428;-85
2022/04/01 00:33:16;;;;;;;17.70;14.07;;;6.70;99.90;;;;;;6205232;23;20446;-83
2022/04/01 00:35:43;;;;;;;20.20;15.27;;;6.60;99.90;;;;;;6207497;23;20469;-84
2022/04/01 00:38:11;;;;;;;18.60;15.60;;;6.60;99.90;;;;;;6195402;23;20831;-83
2022/04/01 00:40:39;;;;;;;17.67;15.67;;;6.60;99.90;;;;;;6193568;23;20406;-83
2022/04/01 00:43:06;;;;;;;18.50;15.77;;;6.60;99.90;;;;;;6200183;23;20414;-83
2022/04/01 00:45:33;;;;;;;16.60;14.70;;;6.60;99.90;;;;;;6207352;23;20469;-82
2022/04/01 00:48:01;;;;;;;17.37;15.30;;;6.60;99.90;;;;;;6205575;23;20431;-83
2022/04/01 00:50:28;;;;;;;19.90;16.50;;;6.60;99.90;;;;;;6196454;23;20412;-83
2022/04/01 00:52:55;;;;;;;18.13;15.47;;;6.60;99.90;;;;;;6191804;23;20440;-83
2022/04/01 00:55:28;;;;;;;21.37;16.53;;;6.60;99.90;;;;;;6191183;23;20409;-83
2022/04/01 00:57:55;;;;;;;17.87;14.83;;;6.60;99.90;;;;;;6189054;23;20429;-83
2022/04/01 01:00:25;;;;;;;20.90;17.17;;;6.60;99.90;;;;;;6188882;23;20408;-84
2022/04/01 01:02:53;;;;;;;20.17;16.93;;;6.60;99.90;;;;;;6186727;23;20409;-84
2022/04/01 01:05:20;;;;;;;22.93;16.40;;;6.60;99.90;;;;;;6187824;23;20512;-84
2022/04/01 01:07:53;;;;;;;19.17;15.97;;;6.60;99.90;;;;;;6190233;23;20433;-81
2022/04/01 01:10:21;;;;;;;19.00;15.43;;;6.60;99.90;;;;;;6191777;23;20410;-84
2022/04/01 01:12:49;;;;;;;18.40;15.40;;;6.60;99.90;;;;;;6188143;23;20912;-84
2022/04/01 01:15:18;;;;;;;18.17;14.87;;;6.60;99.90;;;;;;6187898;23;20406;-84
2022/04/01 01:17:45;;;;;;;16.90;13.80;;;6.60;99.90;;;;;;6186708;23;20483;-84
2022/04/01 01:20:16;;;;;;;16.00;13.67;;;6.50;99.90;;;;;;6187757;23;20484;-84
2022/04/01 01:22:43;;;;;;;16.83;14.03;;;6.50;99.90;;;;;;6188560;23;20424;-83
2022/04/01 01:25:13;;;;;;;18.80;14.47;;;6.40;99.90;;;;;;6193774;23;20437;-82
2022/04/01 01:27:40;;;;;;;18.30;14.80;;;6.40;99.90;;;;;;6189942;23;20433;-83
2022/04/01 01:30:08;;;;;;;15.50;13.23;;;6.40;99.90;;;;;;6189739;23;20413;-84
2022/04/01 01:32:35;;;;;;;19.60;15.10;;;6.40;99.90;;;;;;6187442;23;20409;-83
2022/04/01 01:35:03;;;;;;;17.50;14.17;;;6.40;99.90;;;;;;6190615;23;20433;-83
2022/04/01 01:37:30;;;;;;;14.13;12.63;;;6.40;99.90;;;;;;6186684;23;20488;-83
2022/04/01 01:39:56;;;;;;;15.90;13.10;;;6.30;99.90;;;;;;6194273;23;20402;-82
2022/04/01 01:42:24;;;;;;;16.90;14.03;;;6.30;99.90;;;;;;6189613;23;20406;-83
2022/04/01 01:44:51;;;;;;;17.47;13.23;;;6.30;99.90;;;;;;6193719;23;20401;-83
2022/04/01 01:47:18;;;;;;;15.10;13.60;;;6.30;99.90;;;;;;6191574;23;20457;-84
2022/04/01 01:55:15;;;;;;;17.60;13.70;;;6.30;99.90;;;;;;6145816;23;20461;-82
2022/04/01 01:57:43;;;;;;;13.90;12.40;;;6.30;99.90;;;;;;6201880;23;20429;-84
2022/04/01 02:00:11;;;;;;;15.03;13.17;;;6.30;99.90;;;;;;6200541;23;20417;-83
2022/04/01 02:02:38;;;;;;;15.70;13.70;;;6.30;99.90;;;;;;6200043;23;21206;-82
2022/04/01 02:05:06;;;;;;;16.97;13.53;;;6.20;99.90;;;;;;6199885;23;20470;-81
2022/04/01 02:07:33;;;;;;;19.37;12.80;;;6.20;99.90;;;;;;6201790;23;20456;-81
2022/04/01 02:10:00;;;;;;;15.37;13.07;;;6.20;99.90;;;;;;6200135;23;20433;-82
2022/04/01 02:12:27;;;;;;;16.43;13.70;;;6.20;99.90;;;;;;6187776;23;20822;-83
2022/04/01 02:14:55;;;;;;;14.97;13.37;;;6.20;99.90;;;;;;6188290;23;20441;-83
2022/04/01 02:17:22;;;;;;;16.37;12.50;;;6.20;99.90;;;;;;6167916;23;20422;-83
2022/04/01 02:19:50;;;;;;;17.57;14.63;;;6.20;99.90;;;;;;6192331;23;20755;-83
2022/04/01 02:22:17;;;;;;;15.90;12.47;;;6.20;99.90;;;;;;6191680;23;20727;-82
2022/04/01 02:24:44;;;;;;;18.80;13.87;;;6.20;99.90;;;;;;6186255;23;20945;-83
2022/04/01 02:27:11;;;;;;;16.30;13.40;;;6.20;99.90;;;;;;6186710;23;20450;-85
2022/04/01 02:29:38;;;;;;;15.80;12.73;;;6.20;99.90;;;;;;6186826;23;20417;-83
2022/04/01 02:32:07;;;;;;;15.83;13.67;;;6.20;99.90;;;;;;6197329;23;20421;-79
2022/04/01 02:34:34;;;;;;;15.23;13.47;;;6.20;99.90;;;;;;6193666;23;20406;-83
2022/04/01 02:37:04;;;;;;;18.17;14.70;;;6.30;99.90;;;;;;6187018;23;20512;-83
2022/04/01 02:39:31;;;;;;;17.13;14.57;;;6.30;99.90;;;;;;6186877;23;20394;-83
2022/04/01 02:41:58;;;;;;;17.80;14.53;;;6.20;99.90;;;;;;6185846;23;20434;-83
2022/04/01 02:44:25;;;;;;;16.33;14.60;;;6.20;99.90;;;;;;6187359;23;20434;-83
2022/04/01 02:46:51;;;;;;;15.10;13.60;;;6.30;99.90;;;;;;6192275;23;20480;-83
2022/04/01 02:49:20;;;;;;;17.10;15.20;;;6.20;99.90;;;;;;6192383;23;20414;-82
2022/04/01 02:51:48;;;;;;;16.60;13.60;;;6.10;99.90;;;;;;6195822;23;20406;-82
2022/04/01 02:54:15;;;;;;;16.40;14.70;;;6.10;99.90;;;;;;6190917;23;20406;-84
2022/04/01 02:56:43;;;;;;;17.93;14.53;;;6.20;99.90;;;;;;6186098;23;20435;-84
2022/04/01 02:59:11;;;;;;;14.90;13.00;;;6.10;99.90;;;;;;6199296;23;20474;-82
2022/04/01 03:01:40;;;;;;;19.23;15.17;;;6.10;99.90;;;;;;6195454;23;20413;-83
2022/04/01 03:04:09;;;;;;;14.90;12.90;;;6.10;99.90;;;;;;6197883;23;20413;-82
2022/04/01 03:06:37;;;;;;;18.03;15.23;;;6.20;99.90;;;;;;6196308;23;20487;-82
2022/04/01 03:09:04;;;;;;;14.90;13.23;;;6.20;99.90;;;;;;6191872;23;20410;-84
2022/04/01 03:11:32;;;;;;;17.40;13.60;;;6.20;99.90;;;;;;6188707;23;20444;-84
2022/04/01 03:13:59;;;;;;;15.00;13.43;;;6.10;99.90;;;;;;6197172;23;20429;-82
2022/04/01 03:16:25;;;;;;;15.83;13.87;;;6.10;99.90;;;;;;6187529;23;20469;-84
2022/04/01 03:18:57;;;;;;;14.10;12.17;;;6.10;99.90;;;;;;6185790;23;21091;-84
2022/04/01 03:21:24;;;;;;;16.20;13.03;;;6.10;99.90;;;;;;6185791;23;20417;-83
2022/04/01 03:23:53;;;;;;;16.60;12.60;;;6.00;99.90;;;;;;6185518;23;20414;-83
2022/04/01 03:26:21;;;;;;;14.27;12.00;;;6.00;99.90;;;;;;6185848;23;20503;-83
2022/04/01 03:28:48;;;;;;;15.97;12.63;;;6.00;99.90;;;;;;6185622;23;20717;-84
2022/04/01 03:31:15;;;;;;;15.97;13.07;;;6.00;99.90;;;;;;6185659;23;20912;-84
2022/04/01 03:33:42;;;;;;;16.27;13.00;;;6.00;99.90;;;;;;6186325;23;20749;-84
2022/04/01 03:36:09;;;;;;;16.17;13.93;;;6.00;99.90;;;;;;6186339;23;20771;-82
2022/04/01 03:38:37;;;;;;;15.87;14.00;;;6.00;99.90;;;;;;6186802;23;20391;-83
2022/04/01 03:41:06;;;;;;;15.93;13.30;;;6.00;99.90;;;;;;6186890;23;20424;-82
2022/04/01 03:43:35;;;;;;;14.07;12.60;;;6.00;99.90;;;;;;6191944;23;20440;-82
2022/04/01 03:46:06;;;;;;;16.73;15.03;;;6.00;99.90;;;;;;6206147;23;20402;-83
2022/04/01 03:48:39;;;;;;;13.43;12.13;;;6.00;99.90;;;;;;6211352;23;20446;-84
2022/04/01 03:51:06;;;;;;;13.83;12.43;;;6.00;99.90;;;;;;6208548;23;20425;-83
2022/04/01 03:53:35;;;;;;;11.87;10.70;;;5.90;99.90;;;;;;6185125;23;20414;-82
2022/04/01 03:56:06;;;;;;;13.03;11.73;;;5.90;99.90;;;;;;6184251;23;20496;-82
2022/04/01 03:58:36;;;;;;;17.40;12.43;;;5.90;99.90;;;;;;6183302;23;20411;-82
2022/04/01 04:01:04;;;;;;;15.67;12.57;;;5.90;99.90;;;;;;6197968;23;20910;-83
2022/04/01 04:03:32;;;;;;;14.07;12.43;;;5.90;99.90;;;;;;6193966;23;20405;-83
2022/04/01 04:29:19;;;;;;;12.00;10.70;;;5.70;99.90;;;;;;6208244;23;20460;-87
2022/04/01 04:32:00;;;;;;;12.30;11.00;;;5.70;99.90;;;;;;6209476;23;20374;-87
2022/04/01 04:34:32;;;;;;;12.23;10.93;;;5.70;99.90;;;;;;6208527;23;20468;-87
2022/04/01 04:37:00;;;;;;;11.70;9.97;;;5.70;99.90;;;;;;6202587;23;20459;-87
2022/04/01 04:39:31;;;;;;;10.03;9.10;;;5.60;99.90;;;;;;6191968;23;20435;-87
2022/04/01 04:42:02;;;;;;;10.77;9.60;;;5.60;99.90;;;;;;6189963;23;20376;-87
2022/04/01 04:44:31;;;;;;;11.57;10.37;;;5.60;99.90;;;;;;6190633;23;20513;-88
2022/04/01 04:46:59;;;;;;;10.87;9.50;;;5.60;99.90;;;;;;6200122;23;20440;-88
2022/04/01 04:49:27;;;;;;;12.70;10.50;;;5.60;99.90;;;;;;6205991;23;20424;-88
2022/04/01 04:51:58;;;;;;;11.97;10.77;;;5.60;99.90;;;;;;6192652;23;20877;-88
2022/04/01 04:54:26;;;;;;;11.00;9.90;;;5.60;99.90;;;;;;6191424;23;20409;-88
2022/04/01 04:56:54;;;;;;;11.40;10.30;;;5.70;99.90;;;;;;6210394;23;20406;-88
2022/04/01 04:59:22;;;;;;;10.40;9.40;;;5.60;99.90;;;;;;6197591;23;20394;-88
2022/04/01 05:01:58;;;;;;;11.27;9.90;;;5.60;99.90;;;;;;6188680;23;20412;-89
2022/04/01 05:04:44;;;;;;;11.23;10.03;;;5.60;99.90;;;;;;6188790;23;20635;-89
2022/04/01 05:07:29;;;;;;;10.70;9.30;;;5.60;99.90;;;;;;6187657;23;20762;-88
2022/04/01 05:10:07;;;;;;;12.70;11.27;;;5.50;99.90;;;;;;6187148;23;20413;-88
2022/04/01 05:12:38;;;;;;;9.60;8.70;;;5.50;99.90;;;;;;6198229;23;20433;-88
2022/04/01 05:15:08;;;;;;;8.07;6.90;;;5.50;99.90;;;;;;6214077;23;20428;-88
2022/04/01 05:17:38;;;;;;;9.37;7.60;;;5.50;99.90;;;;;;6193251;23;20402;-89
2022/04/01 05:20:15;;;;;;;9.07;8.13;;;5.40;99.90;;;;;;6190564;23;20406;-89
2022/04/01 05:22:50;;;;;;;8.63;7.73;;;5.40;99.90;;;;;;6194350;23;20389;-88
2022/04/01 05:25:21;;;;;;;8.90;8.00;;;5.40;99.90;;;;;;6214000;23;20424;-88
2022/04/01 05:27:52;;;;;;;7.47;6.43;;;5.50;99.90;;;;;;6194725;23;20445;-88
2022/04/01 05:30:25;;;;;;;8.47;7.67;;;5.40;99.90;;;;;;6189528;23;20479;-89
2022/04/01 05:33:08;;;;;;;8.50;7.70;;;5.40;99.90;;;;;;6189070;23;20410;-89
2022/04/01 05:35:41;;;;;;;9.77;8.73;;;5.40;99.90;;;;;;6188085;23;20424;-89
2022/04/01 05:38:08;;;;;;;9.53;8.63;;;5.40;99.90;;;;;;6189234;23;20385;-89
2022/04/01 05:40:39;;;;;;;9.27;8.37;;;5.40;99.90;;;;;;6192447;23;20473;-89
2022/04/01 05:43:10;;;;;;;7.70;6.90;;;5.40;99.90;;;;;;6212243;23;20413;-89
2022/04/01 05:45:38;;;;;;;9.60;8.60;;;5.40;99.90;;;;;;6194216;23;20468;-88
2022/04/01 05:48:09;;;;;;;8.60;7.80;;;5.40;99.90;;;;;;6187854;23;20451;-88
2022/04/01 05:50:37;;;;;;;9.37;8.47;;;5.40;99.90;;;;;;6189079;23;20404;-88
2022/04/01 05:53:06;;;;;;;8.33;7.53;;;5.50;99.90;;;;;;6190926;23;20405;-89
2022/04/01 05:55:36;;;;;;;9.13;8.23;;;5.50;99.90;;;;;;6191568;23;20433;-88
2022/04/01 05:58:04;;;;;;;8.67;7.77;;;5.40;99.90;;;;;;6188406;23;20404;-88
2022/04/01 06:00:39;;;;;;;8.57;7.77;;;5.40;99.90;;;;;;6189195;23;20416;-89
2022/04/01 06:03:32;;;;;;;9.10;7.83;;;5.40;99.90;;;;;;6198334;23;20416;-89
2022/04/01 06:06:07;;;;;;;8.23;7.37;;;5.30;99.90;;;;;;6187615;23;20428;-89
2022/04/01 06:08:48;;;;;;;8.13;7.33;;;5.30;99.90;;;;;;6187709;23;20469;-89
2022/04/01 06:11:20;;;;;;;8.90;7.83;;;5.30;99.90;;;;;;6187726;23;20411;-89
2022/04/01 06:13:55;;;;;;;9.27;8.33;;;5.30;99.90;;;;;;6187275;23;20396;-89
2022/04/01 06:16:32;;;;;;;9.57;8.67;;;5.30;99.90;;;;;;6187662;23;20436;-89
2022/04/01 06:19:11;;;;;;;9.23;8.30;;;5.30;99.90;;;;;;6187944;23;20391;-89
2022/04/01 06:21:41;;;;;;;8.20;7.40;;;5.30;99.90;;;;;;6187159;23;20393;-88
2022/04/01 06:24:10;;;;;;;8.80;7.90;;;5.30;99.90;;;;;;6187088;23;20889;-89
2022/04/01 06:26:41;;;;;;;10.00;8.97;;;5.30;99.90;;;;;;6194104;23;20451;-89
2022/04/01 06:29:34;;;;;;;8.30;7.50;;;5.30;99.90;;;;;;6210191;23;20437;-89
2022/04/01 06:32:05;;;;;;;9.03;8.13;;;5.30;99.90;;;;;;6209444;23;20427;-89
2022/04/01 06:34:42;;;;;;;9.40;8.50;;;5.30;99.90;;;;;;6213134;23;20414;-88
2022/04/01 06:37:16;;;;;;;8.60;7.80;;;5.40;99.90;;;;;;6209211;23;20392;-89
2022/04/01 06:39:47;;;;;;;9.63;8.73;;;5.40;99.90;;;;;;6194028;23;20412;-89
2022/04/01 06:42:19;;;;;;;8.73;7.93;;;5.50;99.90;;;;;;6188427;23;20400;-89
2022/04/01 06:44:47;;;;;;;9.13;8.23;;;5.50;99.90;;;;;;6194974;23;20420;-89
2022/04/01 06:47:14;;;;;;;10.00;9.00;;;5.50;99.90;;;;;;6211677;23;20432;-90
2022/04/01 06:49:42;;;;;;;9.97;8.20;;;5.50;99.90;;;;;;6210402;23;20401;-88
2022/04/01 06:52:09;;;;;;;10.10;9.03;;;5.60;99.90;;;;;;6208752;23;21030;-88
2022/04/01 06:54:37;;;;;;;9.60;8.73;;;5.50;99.90;;;;;;6191608;23;20823;-88
2022/04/01 06:57:04;;;;;;;10.27;9.27;;;5.50;99.90;;;;;;6204088;23;20429;-89
2022/04/01 06:59:31;;;;;;;9.70;8.90;;;5.50;99.90;;;;;;6211928;23;20409;-88
2022/04/01 07:01:58;;;;;;;8.77;7.93;;;5.50;99.90;;;;;;6203901;23;20461;-89
2022/04/01 07:04:25;;;;;;;10.13;9.20;;;5.50;99.90;;;;;;6202191;23;20739;-88
2022/04/01 07:06:55;;;;;;;8.47;7.60;;;5.50;99.90;;;;;;6188961;23;20402;-89
2022/04/01 07:09:22;;;;;;;9.23;8.37;;;5.50;99.90;;;;;;6189062;23;20466;-89
2022/04/01 07:11:49;;;;;;;9.03;8.13;;;5.50;99.90;;;;;;6187917;23;20418;-89
2022/04/01 07:14:16;;;;;;;8.67;7.83;;;5.60;99.90;;;;;;6187023;23;20410;-89
2022/04/01 07:16:43;;;;;;;8.43;7.63;;;5.60;99.90;;;;;;6186621;23;20484;-89
2022/04/01 07:19:10;;;;;;;9.60;8.70;;;5.50;99.90;;;;;;6187227;23;20893;-89
2022/04/01 07:21:39;;;;;;;10.63;9.53;;;5.50;99.90;;;;;;6190776;23;20418;-88
2022/04/01 07:24:10;;;;;;;10.40;9.40;;;5.50;99.90;;;;;;6192543;23;20424;-89
2022/04/01 07:26:37;;;;;;;9.80;8.80;;;5.50;99.90;;;;;;6193627;23;20898;-89
2022/04/01 07:29:04;;;;;;;10.30;9.30;;;5.60;99.90;;;;;;6192624;23;20440;-87
2022/04/01 07:34:21;;;;;;;12.20;11.00;;;5.60;99.90;;;;;;6196363;23;20436;-87
2022/04/01 07:36:48;;;;;;;10.80;9.80;;;5.60;99.90;;;;;;6191084;23;20406;-87
2022/04/01 07:39:16;;;;;;;10.87;9.87;;;5.60;99.90;;;;;;6187865;23;20488;-88
2022/04/01 07:41:43;;;;;;;10.30;9.30;;;5.60;99.90;;;;;;6187121;23;20414;-88
2022/04/01 07:44:10;;;;;;;8.50;7.70;;;5.60;99.90;;;;;;6191787;23;20416;-88
2022/04/01 07:46:36;;;;;;;7.00;6.30;;;5.60;99.90;;;;;;6206168;23;20469;-88
2022/04/01 07:49:04;;;;;;;7.47;6.70;;;5.60;99.90;;;;;;6211256;23;20441;-88
2022/04/01 07:51:30;;;;;;;7.10;6.40;;;5.50;99.90;;;;;;6189926;23;20496;-89
2022/04/01 07:53:57;;;;;;;7.33;5.60;;;5.50;99.90;;;;;;6186593;23;20430;-88
2022/04/01 07:56:30;;;;;;;10.17;9.10;;;5.60;99.90;;;;;;6185795;23;20488;-88
2022/04/01 07:58:57;;;;;;;11.17;9.23;;;5.60;99.90;;;;;;6187770;23;20398;-88
2022/04/01 08:01:25;;;;;;;11.50;10.07;;;5.50;99.90;;;;;;6201957;23;20418;-88
2022/04/01 08:03:52;;;;;;;12.33;10.50;;;5.50;99.90;;;;;;6211457;23;20420;-88
2022/04/01 08:06:18;;;;;;;12.53;11.00;;;5.50;99.90;;;;;;6202980;23;20422;-89
2022/04/01 08:08:45;;;;;;;13.50;11.23;;;5.50;99.90;;;;;;6192580;23;20438;-89
2022/04/01 08:11:12;;;;;;;12.80;11.33;;;5.60;99.90;;;;;;6187068;23;20417;-89
2022/04/01 08:13:40;;;;;;;12.47;9.90;;;5.50;99.90;;;;;;6187048;23;20415;-88
2022/04/01 08:16:08;;;;;;;12.13;10.20;;;5.60;99.90;;;;;;6186126;23;20771;-89
2022/04/01 08:18:35;;;;;;;8.33;7.43;;;5.60;99.90;;;;;;6186260;23;20417;-89
2022/04/01 08:21:01;;;;;;;9.87;8.97;;;5.60;99.90;;;;;;6186316;23;20814;-86
2022/04/01 08:23:34;;;;;;;9.57;7.97;;;5.60;99.90;;;;;;6188372;23;20435;-89
2022/04/01 08:26:00;;;;;;;13.17;10.83;;;5.60;99.90;;;;;;6185542;23;20430;-89
2022/04/01 08:28:27;;;;;;;12.50;10.97;;;5.60;99.90;;;;;;6186039;23;20440;-89
2022/04/01 08:30:55;;;;;;;14.07;12.60;;;5.60;99.90;;;;;;6185501;23;20751;-89
2022/04/01 08:33:22;;;;;;;13.03;11.70;;;5.50;99.90;;;;;;6204918;23;20401;-88
2022/04/01 08:35:49;;;;;;;14.23;12.67;;;5.50;99.90;;;;;;6210539;23;20416;-89
2022/04/01 08:38:16;;;;;;;11.70;10.20;;;5.60;99.90;;;;;;6209316;23;20499;-89
2022/04/01 08:40:43;;;;;;;11.03;8.90;;;5.60;99.90;;;;;;6212295;23;20401;-88
2022/04/01 08:43:10;;;;;;;9.23;6.53;;;5.60;99.90;;;;;;6209179;23;20436;-88
2022/04/01 08:45:38;;;;;;;7.33;6.40;;;5.60;99.90;;;;;;6203716;23;20433;-87
2022/04/01 08:48:09;;;;;;;7.20;6.20;;;5.60;99.90;;;;;;6209374;23;20448;-88
2022/04/01 08:50:36;;;;;;;5.83;5.03;;;5.70;99.90;;;;;;6194562;23;20401;-87
2022/04/01 08:53:04;;;;;;;5.30;4.80;;;5.60;99.90;;;;;;6195394;23;20412;-88
2022/04/01 08:55:30;;;;;;;6.10;5.40;;;5.70;99.90;;;;;;6191568;23;20429;-88
2022/04/01 08:57:57;;;;;;;7.47;5.40;;;5.60;99.90;;;;;;6190117;23;20456;-89
2022/04/01 09:00:35;;;;;;;4.60;4.20;;;5.70;99.90;;;;;;6189514;23;20415;-89
2022/04/01 09:03:05;;;;;;;6.20;5.30;;;5.70;99.90;;;;;;6210625;23;20397;-88
2022/04/01 09:05:33;;;;;;;6.07;5.47;;;5.70;99.90;;;;;;6214461;23;20417;-88
2022/04/01 09:08:01;;;;;;;6.03;5.43;;;5.70;99.90;;;;;;6195251;23;20444;-88
2022/04/01 09:10:29;;;;;;;5.70;4.83;;;5.70;99.90;;;;;;6195537;23;20421;-89
2022/04/01 09:12:56;;;;;;;5.50;5.00;;;5.70;99.90;;;;;;6189861;23;20401;-88
2022/04/01 09:15:23;;;;;;;7.13;6.27;;;5.70;99.90;;;;;;6206099;23;20448;-88
2022/04/01 09:17:51;;;;;;;5.80;5.20;;;5.70;99.90;;;;;;6212756;23;20414;-88
2022/04/01 09:20:18;;;;;;;6.00;5.40;;;5.80;99.90;;;;;;6190719;23;20394;-88
2022/04/01 09:22:46;;;;;;;5.63;5.13;;;5.80;99.90;;;;;;6188963;23;20404;-88
2022/04/01 09:25:15;;;;;;;5.50;5.00;;;5.80;99.90;;;;;;6188814;23;20444;-88
2022/04/01 09:27:46;;;;;;;7.23;6.30;;;5.80;99.90;;;;;;6187465;23;20480;-88
2022/04/01 09:30:14;;;;;;;7.80;6.93;;;5.70;99.90;;;;;;6191153;23;20449;-88
2022/04/01 09:32:44;;;;;;;7.50;6.50;;;5.70;99.90;;;;;;6189638;23;20904;-88
2022/04/01 09:35:12;;;;;;;7.73;6.97;;;5.60;99.90;;;;;;6189795;23;20441;-88
2022/04/01 09:37:41;;;;;;;7.63;6.93;;;5.70;99.90;;;;;;6210112;23;20424;-88
2022/04/01 09:40:12;;;;;;;8.10;7.30;;;5.70;99.90;;;;;;6213967;23;20386;-89
2022/04/01 09:42:39;;;;;;;7.47;6.77;;;5.80;99.90;;;;;;6213832;23;20411;-89
2022/04/01 09:45:07;;;;;;;5.47;4.93;;;5.80;99.90;;;;;;6214054;23;20432;-89
2022/04/01 09:47:39;;;;;;;5.70;5.20;;;5.80;99.90;;;;;;6204142;23;20516;-88
2022/04/01 09:50:14;;;;;;;5.30;4.73;;;5.80;99.90;;;;;;6204100;23;20441;-89
2022/04/01 09:52:42;;;;;;;5.53;5.03;;;5.90;99.90;;;;;;6213401;23;20417;-89
2022/04/01 09:55:10;;;;;;;6.00;5.40;;;6.00;99.90;;;;;;6213970;23;20410;-88
2022/04/01 09:57:37;;;;;;;6.33;5.83;;;6.00;99.90;;;;;;6209909;23;20418;-89
2022/04/01 10:00:09;;;;;;;6.03;5.47;;;5.90;99.90;;;;;;6193984;23;20497;-88
2022/04/01 10:02:37;;;;;;;6.10;5.50;;;5.90;99.90;;;;;;6191399;23;20444;-90
2022/04/01 10:05:05;;;;;;;7.50;6.80;;;6.00;99.90;;;;;;6194528;23;20461;-81
2022/04/01 10:07:33;;;;;;;6.80;5.80;;;6.00;99.90;;;;;;6199666;23;20571;-82
2022/04/01 10:10:05;;;;;;;5.70;5.17;;;5.90;99.90;;;;;;6199776;23;20412;-82
2022/04/01 10:12:39;;;;;;;5.90;5.20;;;6.00;99.90;;;;;;6195950;23;20444;-82
2022/04/01 10:15:08;;;;;;;6.67;6.03;;;5.90;99.90;;;;;;6196246;23;20426;-81
2022/04/01 10:17:39;;;;;;;6.97;6.27;;;6.00;99.90;;;;;;6203447;23;20440;-82
2022/04/01 10:20:08;;;;;;;6.53;5.23;;;6.00;99.90;;;;;;6207136;23;20440;-80
2022/04/01 10:22:37;;;;;;;6.30;5.63;;;6.00;99.90;;;;;;6202551;23;20820;-80
2022/04/01 10:25:12;;;;;;;6.53;5.83;;;5.90;99.90;;;;;;6195855;23;20701;-82
2022/04/01 10:27:44;;;;;;;6.73;6.07;;;6.00;99.90;;;;;;6194623;23;20389;-82
2022/04/01 10:30:15;;;;;;;5.33;4.87;;;6.00;99.90;;;;;;6195027;23;20414;-82
2022/04/01 10:32:43;;;;;;;6.40;5.53;;;6.00;99.90;;;;;;6192388;23;20390;-82
2022/04/01 10:35:22;;;;;;;5.37;4.87;;;6.00;99.90;;;;;;6192734;23;20484;-80
2022/04/01 10:37:53;;;;;;;5.53;5.03;;;6.00;99.90;;;;;;6193278;23;20396;-81
2022/04/01 10:40:20;;;;;;;5.00;4.50;;;6.00;99.90;;;;;;6193750;23;20783;-81
2022/04/01 10:42:49;;;;;;;5.50;5.03;;;6.10;99.90;;;;;;6193852;23;20449;-82
2022/04/01 10:45:26;;;;;;;5.17;4.70;;;6.10;99.90;;;;;;6199888;23;20425;-81
2022/04/01 10:53:41;;;;;;;4.70;4.40;;;5.90;99.90;;;;;;6193227;23;20412;-81
2022/04/01 10:56:36;;;;;;;6.00;5.40;;;5.80;99.90;;;;;;6192255;23;20422;-82
2022/04/01 10:59:23;;;;;;;5.37;4.97;;;5.70;99.90;;;;;;6197365;23;20768;-80
2022/04/01 11:02:07;;;;;;;5.20;4.80;;;5.60;99.90;;;;;;6210010;23;20396;-81
2022/04/01 11:04:37;;;;;;;5.40;4.90;;;5.60;99.90;;;;;;6207725;23;20404;-82
2022/04/01 11:07:06;;;;;;;5.90;5.40;;;5.70;99.90;;;;;;6204570;23;20424;-81
2022/04/01 11:09:51;;;;;;;6.60;5.20;;;5.70;99.90;;;;;;6204117;23;20461;-81
2022/04/01 11:12:38;;;;;;;6.00;5.50;;;5.60;99.90;;;;;;6200836;23;20390;-81
2022/04/01 11:18:06;;;;;;;6.27;5.53;;;5.60;99.90;;;;;;6204896;23;20398;-85
2022/04/01 11:20:35;;;;;;;6.53;5.93;;;5.60;99.90;;;;;;6202870;23;20413;-82
2022/04/01 11:23:04;;;;;;;6.00;5.50;;;5.50;99.90;;;;;;6195949;23;20425;-82
2022/04/01 11:25:54;;;;;;;6.30;5.70;;;5.50;99.90;;;;;;6198457;23;20431;-82
2022/04/01 11:28:24;;;;;;;5.83;5.30;;;5.30;99.90;;;;;;6170741;23;20437;-81
2022/04/01 11:31:12;;;;;;;6.40;5.80;;;5.40;99.90;;;;;;6193157;23;20423;-81
2022/04/01 11:33:40;;;;;;;5.70;5.10;;;5.40;99.90;;;;;;6196946;23;20444;-80
2022/04/01 11:36:07;;;;;;;6.70;6.10;;;5.40;99.90;;;;;;6197416;23;20429;-81
2022/04/01 11:38:34;;;;;;;6.40;5.80;;;5.50;99.90;;;;;;6195258;23;20417;-80
2022/04/01 11:41:03;;;;;;;5.93;5.43;;;5.60;99.90;;;;;;6193620;23;20407;-81
2022/04/01 11:43:33;;;;;;;5.67;5.17;;;5.60;99.90;;;;;;6194260;23;20967;-82
2022/04/01 11:46:03;;;;;;;5.93;5.03;;;5.50;99.90;;;;;;6195207;23;20812;-82
2022/04/01 11:48:33;;;;;;;6.67;6.07;;;5.40;99.90;;;;;;6198921;23;20425;-81
2022/04/01 11:51:01;;;;;;;5.33;4.93;;;5.30;99.90;;;;;;6193749;23;20424;-80
2022/04/01 11:53:30;;;;;;;5.70;5.20;;;5.30;99.90;;;;;;6189039;23;20404;-80
2022/04/01 11:55:59;;;;;;;6.43;5.83;;;5.30;99.90;;;;;;6190578;23;20431;-80
2022/04/01 11:58:26;;;;;;;5.80;4.90;;;5.30;99.90;;;;;;6190623;23;20741;-81
2022/04/01 12:00:55;;;;;;;6.87;6.27;;;5.40;99.90;;;;;;6190243;23;20742;-80
2022/04/01 12:03:24;;;;;;;13.60;9.60;;;5.50;99.90;;;;;;6189090;23;20439;-81
2022/04/01 12:08:41;;;;;;;8.00;6.27;;;5.60;99.90;;;;;;6189312;23;20436;-80
2022/04/01 12:08:42;;;;;;;5.87;5.37;;;5.60;99.90;;;;;;6191146;23;20528;-80
2022/04/01 12:11:09;;;;;;;7.90;7.30;;;5.50;99.90;;;;;;6206312;23;20920;-80
2022/04/01 12:13:42;;;;;;;6.83;6.23;;;5.50;99.90;;;;;;6196254;23;20488;-81
2022/04/01 12:16:09;;;;;;;6.73;6.13;;;5.50;99.90;;;;;;6195502;23;20489;-81
2022/04/01 12:18:37;;;;;;;7.40;6.70;;;5.50;99.90;;;;;;6190904;23;20409;-82
2022/04/01 12:21:05;;;;;;;7.63;6.93;;;5.60;99.90;;;;;;6194194;23;20406;-82
2022/04/01 12:23:33;;;;;;;7.43;6.67;;;5.60;99.90;;;;;;6200685;23;20412;-81
2022/04/01 12:26:01;;;;;;;6.87;6.27;;;5.60;99.90;;;;;;6200583;23;20438;-80
2022/04/01 12:28:36;;;;;;;8.20;7.13;;;5.70;99.90;;;;;;6200806;23;20467;-80
2022/04/01 12:31:03;;;;;;;7.97;7.27;;;5.60;99.90;;;;;;6199977;23;20389;-80
2022/04/01 12:33:32;;;;;;;9.13;7.73;;;5.60;99.90;;;;;;6194666;23;20455;-80
2022/04/01 12:36:00;;;;;;;7.53;6.83;;;5.60;99.90;;;;;;6192311;23;20455;-81
2022/04/01 12:38:30;;;;;;;8.70;7.90;;;5.50;99.90;;;;;;6193755;23;20399;-80
2022/04/01 12:40:59;;;;;;;8.27;7.57;;;5.50;99.90;;;;;;6193441;23;20385;-80
2022/04/01 12:43:34;;;;;;;8.43;7.70;;;5.50;99.90;;;;;;6192244;23;20857;-80
2022/04/01 12:46:03;;;;;;;9.33;8.53;;;5.50;99.90;;;;;;6192265;23;20817;-81
2022/04/01 12:48:30;;;;;;;9.70;8.80;;;5.40;99.90;;;;;;6190365;23;20910;-80
2022/04/01 12:51:02;;;;;;;9.40;8.50;;;5.30;99.90;;;;;;6191614;23;20475;-79
2022/04/01 12:53:31;;;;;;;9.00;8.20;;;5.10;99.90;;;;;;6191099;23;20403;-81
2022/04/01 12:56:16;;;;;;;10.53;9.43;;;5.10;99.90;;;;;;6192415;23;20437;-80
2022/04/01 12:58:48;;;;;;;8.60;7.90;;;5.10;99.90;;;;;;6207951;23;20397;-78
2022/04/01 13:01:18;;;;;;;10.00;9.00;;;5.10;99.90;;;;;;6208967;23;20413;-79
2022/04/01 13:03:46;;;;;;;9.43;8.53;;;5.20;99.90;;;;;;6195078;23;20841;-79
2022/04/01 13:06:13;;;;;;;10.60;9.57;;;5.20;99.90;;;;;;6193524;23;20432;-78
2022/04/01 13:08:41;;;;;;;10.40;9.20;;;5.10;99.90;;;;;;6195662;23;20439;-78
2022/04/01 13:11:15;;;;;;;10.47;9.47;;;5.00;99.90;;;;;;6194143;23;20955;-78
2022/04/01 13:13:52;;;;;;;10.07;9.17;;;5.00;99.90;;;;;;6193920;23;20396;-77
2022/04/01 13:16:18;;;;;;;13.53;12.23;;;4.90;99.90;;;;;;6195291;23;20441;-77
2022/04/01 13:18:45;;;;;;;10.60;9.50;;;5.00;99.90;;;;;;6194291;23;20414;-79
2022/04/01 13:21:13;;;;;;;12.10;10.93;;;5.10;99.90;;;;;;6200165;23;20400;-78
2022/04/01 13:23:41;;;;;;;12.77;11.47;;;5.30;99.90;;;;;;6205093;23;20404;-82
2022/04/01 13:26:08;;;;;;;11.57;10.47;;;5.40;99.90;;;;;;6196693;23;20422;-81
2022/04/01 13:28:34;;;;;;;12.63;11.33;;;5.50;99.90;;;;;;6197198;23;20436;-81
2022/04/01 13:31:06;;;;;;;12.10;10.90;;;5.50;99.90;;;;;;6195639;23;20410;-81
2022/04/01 13:33:32;;;;;;;10.47;9.47;;;5.40;99.90;;;;;;6192016;23;20388;-81
2022/04/01 13:35:59;;;;;;;11.63;10.57;;;5.30;99.90;;;;;;6192824;23;20428;-82
2022/04/01 13:38:26;;;;;;;13.37;12.07;;;5.40;99.90;;;;;;6188539;23;20417;-82
2022/04/01 13:40:54;;;;;;;13.27;12.07;;;5.50;99.90;;;;;;6187960;23;20500;-82